createdAt,value
2019-06-26T00:02:19.396Z,5.25
2019-06-26T00:04:50.072Z,4.78
2019-06-26T00:07:20.709Z,4.92
2019-06-26T00:09:50.990Z,11.05
2019-06-26T00:12:22.310Z,5.10
2019-06-26T00:14:52.601Z,6.53
2019-06-26T00:17:22.904Z,9.40
2019-06-26T00:19:53.305Z,6.15
2019-06-26T00:22:23.602Z,6.05
2019-06-26T00:24:53.875Z,7.05
2019-06-26T00:27:24.426Z,6.55
2019-06-26T00:29:56.890Z,9.35
2019-06-26T00:32:27.945Z,4.22
2019-06-26T00:34:58.616Z,5.55
2019-06-26T00:37:28.913Z,5.92
2019-06-26T00:39:59.206Z,7.58
2019-06-26T00:42:29.785Z,6.35
2019-06-26T00:45:00.073Z,7.72
2019-06-26T00:47:30.386Z,4.75
2019-06-26T00:50:01.296Z,7.47
2019-06-26T00:52:32.219Z,6.12
2019-06-26T00:55:05.602Z,5.03
2019-06-26T00:57:37.573Z,7.42
2019-06-26T01:00:10.797Z,5.83
2019-06-26T01:02:41.392Z,4.95
2019-06-26T01:05:13.525Z,6.62
2019-06-26T01:07:44.379Z,11.15
2019-06-26T01:10:15.272Z,5.08
2019-06-26T01:12:45.724Z,7.85
2019-06-26T01:15:17.278Z,7.03
2019-06-26T01:17:47.879Z,6.35
2019-06-26T01:20:18.559Z,7.35
2019-06-26T01:22:49.772Z,8.43
2019-06-26T01:25:21.857Z,7.62
2019-06-26T01:27:52.169Z,6.60
2019-06-26T01:30:23.782Z,9.98
2019-06-26T01:32:54.328Z,7.28
2019-06-26T01:35:25.919Z,9.45
2019-06-26T01:37:56.242Z,8.35
2019-06-26T01:40:28.465Z,9.85
2019-06-26T01:42:58.865Z,8.38
2019-06-26T01:45:29.452Z,9.68
2019-06-26T01:48:01.618Z,8.35
2019-06-26T01:50:33.379Z,7.75
2019-06-26T01:53:03.655Z,9.68
2019-06-26T01:55:34.684Z,8.13
2019-06-26T01:58:04.993Z,7.90
2019-06-26T02:00:36.792Z,11.15
2019-06-26T02:03:07.180Z,9.90
2019-06-26T02:05:37.496Z,9.83
2019-06-26T02:08:07.837Z,8.58
2019-06-26T02:10:39.907Z,8.45
2019-06-26T02:13:10.580Z,10.98
2019-06-26T02:15:40.947Z,8.45
2019-06-26T02:18:40.292Z,7.50
2019-06-26T02:21:10.703Z,8.10
2019-06-26T02:23:41.018Z,9.88
2019-06-26T02:26:11.948Z,9.68
2019-06-26T02:28:43.682Z,6.95
2019-06-26T02:31:14.749Z,9.43
2019-06-26T02:33:45.041Z,10.75
2019-06-26T02:36:15.341Z,7.80
2019-06-26T02:38:45.641Z,9.83
2019-06-26T02:41:15.958Z,7.65
2019-06-26T02:43:46.392Z,8.58
2019-06-26T02:46:17.540Z,6.87
2019-06-26T02:48:48.054Z,6.35
2019-06-26T02:51:18.674Z,10.65
2019-06-26T02:53:48.968Z,7.08
2019-06-26T02:56:20.157Z,6.78
2019-06-26T02:58:50.530Z,8.23
2019-06-26T03:01:22.167Z,9.28
2019-06-26T03:03:53.571Z,10.10
2019-06-26T03:06:23.864Z,9.98
2019-06-26T03:08:54.386Z,10.60
2019-06-26T03:11:29.727Z,7.83
2019-06-26T03:14:00.559Z,10.70
2019-06-26T03:16:30.886Z,9.38
2019-06-26T03:19:01.860Z,7.10
2019-06-26T03:21:33.653Z,10.90
2019-06-26T03:24:03.941Z,13.18
2019-06-26T03:26:34.261Z,8.83
2019-06-26T03:29:05.979Z,10.65
2019-06-26T03:31:36.271Z,7.28
2019-06-26T03:34:06.788Z,7.00
2019-06-26T03:36:37.445Z,10.93
2019-06-26T03:39:08.678Z,8.30
2019-06-26T03:41:39.038Z,8.33
2019-06-26T03:44:09.319Z,9.10
2019-06-26T03:46:39.630Z,10.30
2019-06-26T03:49:09.947Z,11.20
2019-06-26T03:51:40.371Z,8.15
2019-06-26T03:54:14.669Z,8.28
2019-06-26T03:56:44.980Z,10.18
2019-06-26T03:59:15.297Z,9.78
2019-06-26T04:01:48.385Z,9.28
2019-06-26T04:04:19.100Z,8.58
2019-06-26T04:06:49.732Z,10.20
2019-06-26T04:09:20.077Z,8.40
2019-06-26T04:11:51.481Z,9.00
2019-06-26T04:14:22.635Z,7.55
2019-06-26T04:16:52.931Z,9.13
2019-06-26T04:19:23.318Z,9.80
2019-06-26T04:21:53.623Z,8.35
2019-06-26T04:24:23.908Z,9.63
2019-06-26T04:26:54.184Z,10.00
2019-06-26T04:29:24.517Z,11.80
2019-06-26T04:31:54.837Z,11.22
2019-06-26T04:34:25.162Z,7.28
2019-06-26T04:36:55.612Z,9.93
2019-06-26T04:39:25.918Z,8.70
2019-06-26T04:41:56.271Z,10.72
2019-06-26T04:44:26.612Z,8.33
2019-06-26T04:46:57.244Z,11.00
2019-06-26T04:49:27.731Z,12.20
2019-06-26T04:51:58.754Z,14.68
2019-06-26T04:54:29.737Z,8.85
2019-06-26T04:57:00.280Z,10.35
2019-06-26T04:59:34.162Z,10.10
2019-06-26T05:02:06.736Z,11.45
2019-06-26T05:04:37.377Z,12.60
2019-06-26T05:07:08.054Z,12.20
2019-06-26T05:09:38.668Z,11.20
2019-06-26T05:12:08.992Z,10.75
2019-06-26T05:14:39.304Z,14.75
2019-06-26T05:17:10.339Z,14.83
2019-06-26T05:19:42.081Z,12.82
2019-06-26T05:22:12.421Z,13.72
2019-06-26T05:24:46.229Z,15.30
2019-06-26T05:27:18.389Z,12.45
2019-06-26T05:29:49.359Z,12.93
2019-06-26T05:32:20.873Z,12.85
2019-06-26T05:34:51.210Z,16.93
2019-06-26T05:37:21.510Z,11.75
2019-06-26T05:39:54.749Z,10.08
2019-06-26T05:42:25.007Z,14.83
2019-06-26T05:44:58.135Z,10.65
2019-06-26T05:47:29.395Z,10.48
2019-06-26T05:50:00.216Z,11.03
2019-06-26T05:52:30.594Z,10.98
2019-06-26T05:55:01.073Z,10.50
2019-06-26T05:57:31.382Z,9.58
2019-06-26T06:00:01.707Z,13.08
2019-06-26T06:02:32.058Z,8.90
2019-06-26T06:05:02.454Z,12.23
2019-06-26T06:07:33.927Z,10.10
2019-06-26T06:10:04.506Z,13.03
2019-06-26T06:12:34.801Z,12.30
2019-06-26T06:15:05.619Z,18.95
2019-06-26T06:17:35.915Z,14.28
2019-06-26T06:20:07.982Z,20.70
2019-06-26T06:22:38.294Z,11.28
2019-06-26T06:25:08.699Z,11.57
2019-06-26T06:27:41.494Z,11.33
2019-06-26T06:30:12.097Z,11.95
2019-06-26T06:32:43.998Z,11.30
2019-06-26T06:35:16.385Z,12.28
2019-06-26T06:37:46.665Z,10.18
2019-06-26T06:40:17.295Z,12.33
2019-06-26T06:42:48.126Z,11.30
2019-06-26T06:45:18.824Z,11.43
2019-06-26T06:47:50.104Z,10.00
2019-06-26T06:50:20.497Z,13.25
2019-06-26T06:52:50.798Z,14.45
2019-06-26T06:55:21.974Z,15.40
2019-06-26T06:57:52.701Z,14.80
2019-06-26T07:00:23.095Z,12.15
2019-06-26T07:02:54.468Z,15.20
2019-06-26T07:05:25.938Z,17.50
2019-06-26T07:07:56.229Z,13.32
2019-06-26T07:10:26.647Z,13.65
2019-06-26T07:12:57.009Z,15.85
2019-06-26T07:15:29.357Z,13.25
2019-06-26T07:18:00.065Z,16.60
2019-06-26T07:20:30.378Z,14.10
2019-06-26T07:23:04.817Z,13.15
2019-06-26T07:25:35.113Z,13.68
2019-06-26T07:28:05.486Z,12.20
2019-06-26T07:30:35.913Z,10.93
2019-06-26T07:33:06.372Z,13.62
2019-06-26T07:35:36.943Z,13.10
2019-06-26T07:38:18.281Z,11.93
2019-06-26T07:40:49.173Z,18.90
2019-06-26T07:43:20.694Z,17.40
2019-06-26T07:45:51.892Z,17.87
2019-06-26T07:48:23.693Z,12.30
2019-06-26T07:50:54.406Z,12.95
2019-06-26T07:53:24.714Z,19.23
2019-06-26T07:55:57.671Z,14.20
2019-06-26T07:58:28.411Z,14.50
2019-06-26T08:01:01.098Z,14.95
2019-06-26T08:03:31.461Z,15.05
2019-06-26T08:06:02.183Z,13.58
2019-06-26T08:08:32.687Z,14.38
2019-06-26T08:11:06.281Z,15.70
2019-06-26T08:13:35.029Z,14.80
2019-06-26T08:16:05.312Z,16.62
2019-06-26T08:18:35.908Z,15.28
2019-06-26T08:21:12.508Z,15.55
2019-06-26T08:23:38.184Z,11.40
2019-06-26T08:26:08.484Z,10.72
2019-06-26T08:28:38.821Z,12.53
2019-06-26T08:31:09.910Z,10.10
2019-06-26T08:33:40.246Z,9.68
2019-06-26T08:36:10.895Z,9.90
2019-06-26T08:38:41.212Z,12.30
2019-06-26T08:41:11.843Z,10.70
2019-06-26T08:43:42.280Z,11.55
2019-06-26T08:46:12.609Z,13.15
2019-06-26T08:48:44.060Z,9.90
2019-06-26T08:51:14.365Z,7.67
2019-06-26T08:53:45.039Z,9.48
2019-06-26T08:56:15.637Z,11.03
2019-06-26T08:58:46.365Z,10.90
2019-06-26T09:01:16.699Z,9.90
2019-06-26T09:03:47.399Z,11.83
2019-06-26T09:06:18.777Z,11.20
2019-06-26T09:08:49.172Z,9.80
2019-06-26T09:11:19.786Z,8.48
2019-06-26T09:13:50.129Z,8.98
2019-06-26T09:16:20.472Z,11.00
2019-06-26T09:19:03.055Z,9.50
2019-06-26T09:21:36.123Z,11.85
2019-06-26T09:24:06.590Z,14.13
2019-06-26T09:26:37.060Z,8.68
2019-06-26T09:29:07.669Z,10.25
2019-06-26T09:31:39.912Z,7.50
2019-06-26T09:34:10.306Z,8.48
2019-06-26T09:36:52.161Z,8.73
2019-06-26T09:39:22.471Z,6.55
2019-06-26T09:41:52.792Z,6.80
2019-06-26T09:44:23.839Z,8.05
2019-06-26T09:46:54.148Z,6.55
2019-06-26T09:49:24.746Z,6.85
2019-06-26T09:51:55.069Z,8.18
2019-06-26T09:54:25.361Z,10.75
2019-06-26T09:56:56.641Z,8.85
2019-06-26T09:59:29.595Z,6.62
2019-06-26T10:01:59.915Z,7.55
2019-06-26T10:04:30.308Z,8.90
2019-06-26T10:07:01.137Z,7.25
2019-06-26T10:09:31.538Z,11.85
2019-06-26T10:12:01.862Z,10.30
2019-06-26T10:14:46.467Z,6.80
2019-06-26T10:17:04.174Z,7.80
2019-06-26T10:19:35.405Z,6.03
2019-06-26T10:22:10.047Z,8.88
2019-06-26T10:24:40.343Z,6.70
2019-06-26T10:27:10.666Z,8.18
2019-06-26T10:29:40.944Z,7.25
2019-06-26T10:34:43.303Z,9.30
2019-06-26T10:37:13.640Z,10.35
2019-06-26T10:39:44.042Z,8.18
2019-06-26T10:42:14.430Z,10.10
2019-06-26T10:44:45.187Z,11.25
2019-06-26T10:47:17.558Z,7.47
2019-06-26T10:49:47.808Z,9.28
2019-06-26T10:52:18.227Z,6.97
2019-06-26T10:54:48.536Z,9.88
2019-06-26T10:57:19.252Z,8.20
2019-06-26T10:59:49.720Z,10.75
2019-06-26T11:02:19.986Z,14.58
2019-06-26T11:04:50.425Z,10.00
2019-06-26T11:07:20.916Z,10.50
2019-06-26T11:09:51.284Z,11.05
2019-06-26T11:12:22.137Z,11.03
2019-06-26T11:14:53.077Z,11.08
2019-06-26T11:17:23.689Z,9.73
2019-06-26T11:19:55.572Z,9.23
2019-06-26T11:22:28.671Z,11.05
2019-06-26T11:24:59.056Z,11.28
2019-06-26T11:27:29.385Z,12.50
2019-06-26T11:30:00.652Z,9.98
2019-06-26T11:32:31.048Z,12.47
2019-06-26T11:35:01.371Z,13.15
2019-06-26T11:37:32.025Z,10.70
2019-06-26T11:40:02.380Z,12.20
2019-06-26T11:42:33.169Z,10.80
2019-06-26T11:45:03.501Z,12.28
2019-06-26T11:47:34.128Z,14.43
2019-06-26T11:50:05.611Z,11.75
2019-06-26T11:52:37.457Z,12.18
2019-06-26T11:55:10.223Z,14.20
2019-06-26T11:57:40.600Z,16.97
2019-06-26T12:00:12.825Z,12.80
2019-06-26T12:02:43.116Z,16.48
2019-06-26T12:05:13.968Z,13.78
2019-06-26T12:07:44.295Z,15.53
2019-06-26T12:10:15.891Z,13.38
2019-06-26T12:12:46.863Z,15.98
2019-06-26T12:15:19.328Z,14.35
2019-06-26T12:17:51.070Z,15.58
2019-06-26T12:20:23.167Z,21.52
2019-06-26T12:22:54.628Z,16.37
2019-06-26T12:25:25.951Z,22.35
2019-06-26T12:27:56.154Z,18.10
2019-06-26T12:30:26.480Z,21.70
2019-06-26T12:33:03.064Z,19.62
2019-06-26T12:35:36.745Z,17.65
2019-06-26T12:38:07.109Z,15.53
2019-06-26T12:40:49.287Z,18.17
2019-06-26T12:43:20.886Z,19.65
2019-06-26T12:45:51.165Z,18.15
2019-06-26T12:48:22.573Z,19.60
2019-06-26T12:50:52.973Z,22.77
2019-06-26T12:53:23.445Z,17.23
2019-06-26T12:55:55.205Z,21.68
2019-06-26T12:58:25.618Z,19.02
2019-06-26T13:00:57.473Z,20.40
2019-06-26T13:03:27.980Z,18.98
2019-06-26T13:05:58.484Z,19.52
2019-06-26T13:08:30.399Z,17.87
2019-06-26T13:11:00.729Z,20.43
2019-06-26T13:13:31.553Z,18.10
2019-06-26T13:16:01.852Z,21.45
2019-06-26T13:18:33.139Z,18.77
2019-06-26T13:21:05.258Z,18.77
2019-06-26T13:23:36.105Z,23.27
2019-06-26T13:26:06.962Z,19.32
2019-06-26T13:28:39.013Z,17.65
2019-06-26T13:31:09.749Z,23.55
2019-06-26T13:34:21.177Z,17.32
2019-06-26T13:36:56.479Z,17.15
2019-06-26T13:39:49.341Z,17.85
2019-06-26T13:42:46.395Z,14.60
2019-06-26T13:45:23.869Z,18.82
2019-06-26T13:47:55.750Z,16.80
2019-06-26T13:51:08.280Z,15.98
2019-06-26T13:53:59.770Z,14.45
2019-06-26T13:57:15.022Z,13.58
2019-06-26T14:00:14.501Z,13.28
2019-06-26T14:02:57.589Z,17.77
2019-06-26T14:05:53.089Z,12.80
2019-06-26T14:11:47.509Z,14.28
2019-06-26T14:14:20.548Z,13.75
2019-06-26T14:16:51.062Z,13.03
2019-06-26T14:19:21.537Z,13.68
2019-06-26T14:21:52.546Z,12.98
2019-06-26T14:24:23.996Z,14.30
2019-06-26T14:26:54.782Z,12.70
2019-06-26T14:29:28.371Z,12.65
2019-06-26T14:31:58.778Z,13.13
2019-06-26T14:34:29.886Z,16.45
2019-06-26T14:37:00.502Z,16.45
2019-06-26T14:39:30.928Z,15.72
2019-06-26T14:42:04.296Z,18.52
2019-06-26T14:44:34.582Z,15.32
2019-06-26T14:47:04.985Z,14.53
2019-06-26T14:49:35.304Z,14.87
2019-06-26T14:52:05.686Z,15.45
2019-06-26T14:54:39.373Z,13.65
2019-06-26T14:57:09.756Z,14.33
2019-06-26T14:59:40.884Z,16.35
2019-06-26T15:02:11.078Z,15.80
2019-06-26T15:04:46.161Z,12.18
2019-06-26T15:07:16.660Z,16.10
2019-06-26T15:09:53.228Z,13.38
2019-06-26T15:12:27.236Z,15.68
2019-06-26T15:14:58.860Z,17.98
2019-06-26T15:17:29.396Z,11.57
2019-06-26T15:20:02.375Z,12.80
2019-06-26T15:22:33.023Z,11.00
2019-06-26T15:25:06.567Z,11.70
2019-06-26T15:27:39.467Z,13.10
2019-06-26T15:30:13.274Z,13.90
2019-06-26T15:32:43.591Z,11.60
2019-06-26T15:35:51.735Z,11.10
2019-06-26T15:38:46.351Z,10.98
2019-06-26T15:41:15.288Z,12.13
2019-06-26T15:43:48.572Z,8.83
2019-06-26T15:46:19.928Z,10.30
2019-06-26T15:48:50.629Z,9.63
2019-06-26T15:51:24.337Z,10.78
2019-06-26T15:53:59.873Z,13.15
2019-06-26T15:56:28.847Z,15.25
2019-06-26T15:58:59.162Z,16.02
2019-06-26T16:01:33.280Z,13.78
2019-06-26T16:04:03.629Z,13.53
2019-06-26T16:06:35.263Z,11.50
2019-06-26T16:09:07.440Z,13.62
2019-06-26T16:11:37.807Z,12.80
2019-06-26T16:14:10.101Z,11.78
2019-06-26T16:16:42.214Z,11.90
2019-06-26T16:19:15.599Z,12.23
2019-06-26T16:21:46.695Z,17.35
2019-06-26T16:24:18.436Z,13.50
2019-06-26T16:26:49.995Z,18.37
2019-06-26T16:29:20.661Z,12.68
2019-06-26T16:31:50.992Z,14.65
2019-06-26T16:34:21.410Z,14.53
2019-06-26T16:36:51.585Z,14.98
2019-06-26T16:39:23.264Z,13.55
2019-06-26T16:41:53.927Z,14.23
2019-06-26T16:44:24.266Z,16.75
2019-06-26T16:46:54.591Z,15.55
2019-06-26T16:49:27.477Z,15.10
2019-06-26T16:51:59.307Z,15.08
2019-06-26T16:54:29.815Z,15.25
2019-06-26T16:57:01.638Z,15.60
2019-06-26T16:59:32.458Z,15.70
2019-06-26T17:02:07.038Z,19.10
2019-06-26T17:04:36.381Z,12.00
2019-06-26T17:07:09.120Z,17.35
2019-06-26T17:09:39.580Z,16.17
2019-06-26T17:12:11.095Z,17.55
2019-06-26T17:14:42.907Z,16.15
2019-06-26T17:17:14.197Z,20.08
2019-06-26T17:19:44.874Z,18.23
2019-06-26T17:22:15.255Z,13.62
2019-06-26T17:24:46.164Z,15.08
2019-06-26T17:27:16.558Z,11.80
2019-06-26T17:29:49.250Z,10.68
2019-06-26T17:32:19.977Z,19.35
2019-06-26T17:34:50.674Z,17.55
2019-06-26T17:37:21.033Z,12.53
2019-06-26T17:39:51.409Z,17.92
2019-06-26T17:42:21.827Z,13.75
2019-06-26T17:44:52.454Z,13.45
2019-06-26T17:47:22.808Z,13.60
2019-06-26T17:49:53.237Z,13.08
2019-06-26T17:52:23.662Z,15.43
2019-06-26T17:54:54.071Z,14.30
2019-06-26T17:57:24.814Z,15.45
2019-06-26T17:59:55.219Z,13.05
2019-06-26T18:02:25.519Z,16.32
2019-06-26T18:04:56.147Z,16.17
2019-06-26T18:07:26.415Z,18.45
2019-06-26T18:09:56.814Z,16.42
2019-06-26T18:12:28.553Z,16.02
2019-06-26T18:15:00.003Z,19.10
2019-06-26T18:17:30.956Z,13.72
2019-06-26T18:20:01.336Z,16.97
2019-06-26T18:22:32.778Z,18.42
2019-06-26T18:25:04.878Z,14.80
2019-06-26T18:27:35.644Z,12.00
2019-06-26T18:30:08.803Z,16.40
2019-06-26T18:32:39.224Z,15.40
2019-06-26T18:35:09.547Z,16.48
2019-06-26T18:37:39.952Z,16.90
2019-06-26T18:40:12.931Z,15.83
2019-06-26T18:42:43.387Z,16.62
2019-06-26T18:45:13.844Z,19.57
2019-06-26T18:47:44.191Z,21.82
2019-06-26T18:50:14.929Z,24.87
2019-06-26T18:52:45.229Z,18.17
2019-06-26T18:55:15.674Z,19.73
2019-06-26T18:57:46.094Z,23.95
2019-06-26T19:00:21.011Z,24.15
2019-06-26T19:02:51.423Z,24.02
2019-06-26T19:05:22.369Z,21.52
2019-06-26T19:07:52.668Z,26.12
2019-06-26T19:10:23.013Z,28.55
2019-06-26T19:12:54.262Z,26.37
2019-06-26T19:15:24.613Z,24.52
2019-06-26T19:17:54.990Z,26.75
2019-06-26T19:20:25.622Z,30.08
2019-06-26T19:22:56.312Z,24.45
2019-06-26T19:25:26.676Z,23.62
2019-06-26T19:27:57.417Z,24.10
2019-06-26T19:30:27.800Z,23.45
2019-06-26T19:32:58.264Z,24.15
2019-06-26T19:35:28.678Z,25.65
2019-06-26T19:37:59.096Z,22.07
2019-06-26T19:40:29.329Z,22.80
2019-06-26T19:42:59.737Z,26.15
2019-06-26T19:45:29.994Z,21.60
2019-06-26T19:48:00.368Z,22.58
2019-06-26T19:50:30.699Z,26.48
2019-06-26T19:53:01.035Z,24.92
2019-06-26T19:55:31.347Z,30.70
2019-06-26T19:58:01.700Z,28.87
2019-06-26T20:00:32.027Z,33.13
2019-06-26T20:03:02.369Z,25.50
2019-06-26T20:05:33.125Z,30.10
2019-06-26T20:08:03.459Z,28.73
2019-06-26T20:10:33.901Z,28.75
2019-06-26T20:13:04.254Z,28.25
2019-06-26T20:15:35.766Z,34.88
2019-06-26T20:18:06.214Z,34.50
2019-06-26T20:20:36.619Z,29.63
2019-06-26T20:23:06.948Z,28.25
2019-06-26T20:25:37.407Z,31.12
2019-06-26T20:28:08.427Z,27.87
2019-06-26T20:30:39.876Z,26.85
2019-06-26T20:33:10.243Z,33.65
2019-06-26T20:35:40.632Z,28.40
2019-06-26T20:38:10.974Z,24.82
2019-06-26T20:40:41.296Z,31.40
2019-06-26T20:43:12.085Z,29.57
2019-06-26T20:45:42.442Z,29.60
2019-06-26T20:48:13.522Z,27.27
2019-06-26T20:50:44.667Z,30.43
2019-06-26T20:53:15.055Z,31.50
2019-06-26T20:55:45.335Z,36.48
2019-06-26T20:58:15.914Z,27.93
2019-06-26T21:00:46.292Z,32.15
2019-06-26T21:03:16.941Z,32.98
2019-06-26T21:05:47.937Z,30.25
2019-06-26T21:08:18.294Z,33.10
2019-06-26T21:10:48.728Z,30.25
2019-06-26T21:13:19.527Z,30.02
2019-06-26T21:15:52.941Z,26.35
2019-06-26T21:18:21.950Z,26.15
2019-06-26T21:20:52.652Z,29.12
2019-06-26T21:23:23.781Z,28.15
2019-06-26T21:25:54.086Z,27.48
2019-06-26T21:28:24.957Z,27.42
2019-06-26T21:30:55.678Z,35.60
2019-06-26T21:33:26.811Z,28.07
2019-06-26T21:35:57.129Z,28.57
2019-06-26T21:38:27.769Z,24.70
2019-06-26T21:40:58.400Z,26.73
2019-06-26T21:43:29.313Z,26.15
2019-06-26T21:45:59.644Z,27.45
2019-06-26T21:48:30.407Z,28.67
2019-06-26T21:51:00.699Z,26.85
2019-06-26T21:53:33.346Z,27.27
2019-06-26T21:56:04.964Z,29.07
2019-06-26T21:58:35.483Z,30.12
2019-06-26T22:01:05.788Z,29.32
2019-06-26T22:03:36.702Z,28.25
2019-06-26T22:06:07.018Z,32.48
2019-06-26T22:08:40.041Z,26.77
2019-06-26T22:11:10.647Z,25.70
2019-06-26T22:13:40.972Z,41.30
2019-06-26T22:16:12.160Z,36.20
2019-06-26T22:18:42.532Z,29.70
2019-06-26T22:21:12.854Z,29.37
2019-06-26T22:23:43.181Z,36.70
2019-06-26T22:26:15.597Z,29.92
2019-06-26T22:28:46.257Z,30.50
2019-06-26T22:31:16.642Z,29.80
2019-06-26T22:33:47.214Z,28.75
2019-06-26T22:36:17.534Z,29.20
2019-06-26T22:38:47.857Z,29.15
2019-06-26T22:41:18.501Z,28.47
2019-06-26T22:43:49.284Z,29.75
2019-06-26T22:46:20.289Z,57.30
2019-06-26T22:48:52.028Z,47.48
2019-06-26T22:51:22.351Z,53.83
2019-06-26T22:53:52.797Z,49.33
2019-06-26T22:56:23.246Z,46.50
2019-06-26T22:58:54.015Z,39.25
2019-06-26T23:01:24.371Z,30.15
2019-06-26T23:03:54.723Z,22.02
2019-06-26T23:06:25.020Z,20.57
2019-06-26T23:08:55.418Z,19.17
2019-06-26T23:11:26.152Z,18.62
2019-06-26T23:13:56.456Z,15.08
2019-06-26T23:16:27.149Z,16.67
2019-06-26T23:18:57.817Z,17.27
2019-06-26T23:21:28.307Z,15.90
2019-06-26T23:23:59.816Z,16.07
2019-06-26T23:26:30.485Z,20.90
2019-06-26T23:29:00.827Z,13.83
2019-06-26T23:31:31.188Z,14.85
2019-06-26T23:34:01.563Z,14.00
2019-06-26T23:36:32.877Z,17.20
2019-06-26T23:39:03.779Z,16.20
2019-06-26T23:41:34.087Z,18.15
2019-06-26T23:44:04.469Z,17.05
2019-06-26T23:46:34.752Z,17.62
2019-06-26T23:49:05.436Z,15.65
2019-06-26T23:51:36.344Z,16.82
2019-06-26T23:54:06.692Z,15.32
2019-06-26T23:56:40.670Z,12.98
2019-06-26T23:59:09.054Z,15.90
